createdAt,value
2019-03-17T00:07:56.232Z,51.00
2019-03-17T00:26:04.580Z,50.30
2019-03-17T00:28:35.123Z,51.40
2019-03-17T00:31:06.434Z,50.60
2019-03-17T00:33:37.267Z,50.20
2019-03-17T00:36:08.003Z,50.80
2019-03-17T00:38:38.868Z,51.50
2019-03-17T00:41:09.972Z,51.30
2019-03-17T00:43:43.648Z,51.90
2019-03-17T00:46:14.114Z,52.90
2019-03-17T00:48:46.822Z,52.60
2019-03-17T00:51:17.425Z,53.50
2019-03-17T00:53:48.651Z,53.30
2019-03-17T00:56:19.262Z,52.80
2019-03-17T00:58:51.690Z,53.10
2019-03-17T01:01:23.506Z,53.70
2019-03-17T01:03:54.519Z,53.50
2019-03-17T01:06:29.401Z,53.20
2019-03-17T01:09:00.864Z,53.30
2019-03-17T01:11:33.158Z,51.70
2019-03-17T01:14:08.036Z,52.80
2019-03-17T01:16:38.512Z,52.00
2019-03-17T01:19:09.464Z,51.10
2019-03-17T01:21:40.959Z,52.20
2019-03-17T01:24:11.367Z,50.70
2019-03-17T01:26:43.813Z,52.10
2019-03-17T01:29:16.590Z,52.30
2019-03-17T01:31:47.230Z,52.10
2019-03-17T01:34:22.369Z,51.40
2019-03-17T01:37:15.010Z,52.50
2019-03-17T01:39:45.644Z,52.50
2019-03-17T01:42:18.600Z,53.00
2019-03-17T01:44:50.245Z,53.00
2019-03-17T01:47:21.933Z,51.90
2019-03-17T01:49:52.495Z,52.90
2019-03-17T01:52:23.224Z,52.70
2019-03-17T01:54:54.348Z,51.80
2019-03-17T01:57:24.916Z,51.10
2019-03-17T01:59:55.402Z,51.70
2019-03-17T02:02:25.833Z,50.40
2019-03-17T02:04:56.474Z,50.80
2019-03-17T02:07:26.970Z,51.10
2019-03-17T02:09:58.349Z,52.00
2019-03-17T02:12:28.840Z,52.60
2019-03-17T02:15:02.888Z,52.80
2019-03-17T02:17:33.878Z,51.50
2019-03-17T02:20:04.473Z,51.40
2019-03-17T02:22:35.759Z,52.00
2019-03-17T02:25:06.289Z,51.30
2019-03-17T02:27:38.040Z,52.40
2019-03-17T02:30:09.293Z,53.10
2019-03-17T02:32:39.673Z,51.10
2019-03-17T02:35:10.348Z,51.00
2019-03-17T02:37:40.897Z,51.30
2019-03-17T02:40:11.651Z,50.80
2019-03-17T02:42:42.597Z,49.80
2019-03-17T02:45:13.160Z,51.30
2019-03-17T02:47:43.537Z,51.80
2019-03-17T02:50:14.083Z,52.00
2019-03-17T02:52:45.554Z,53.00
2019-03-17T02:55:16.324Z,51.40
2019-03-17T02:57:49.418Z,52.10
2019-03-17T03:00:20.678Z,51.30
2019-03-17T03:02:51.439Z,51.90
2019-03-17T03:05:21.913Z,52.00
2019-03-17T03:07:52.836Z,52.50
2019-03-17T03:10:25.372Z,52.60
2019-03-17T03:12:56.737Z,52.20
2019-03-17T03:15:27.108Z,51.70
2019-03-17T03:17:58.850Z,52.40
2019-03-17T03:20:29.333Z,52.90
2019-03-17T03:22:59.690Z,52.50
2019-03-17T03:25:30.659Z,51.50
2019-03-17T03:28:01.061Z,51.20
2019-03-17T03:30:31.563Z,51.40
2019-03-17T03:33:03.610Z,51.40
2019-03-17T03:35:34.075Z,52.80
2019-03-17T03:38:04.582Z,53.10
2019-03-17T03:40:36.011Z,52.10
2019-03-17T03:43:10.369Z,51.20
2019-03-17T03:45:40.954Z,52.20
2019-03-17T03:48:35.423Z,52.50
2019-03-17T03:51:06.270Z,53.10
2019-03-17T03:53:37.127Z,51.60
2019-03-17T03:56:07.519Z,52.00
2019-03-17T03:58:40.566Z,52.40
2019-03-17T04:01:13.159Z,51.20
2019-03-17T04:03:44.602Z,52.10
2019-03-17T04:06:26.402Z,51.80
2019-03-17T04:08:49.687Z,50.90
2019-03-17T04:11:23.797Z,50.40
2019-03-17T04:13:54.363Z,51.20
2019-03-17T04:16:25.707Z,51.10
2019-03-17T04:18:56.419Z,50.00
2019-03-17T04:21:26.997Z,50.00
2019-03-17T04:23:59.933Z,48.70
2019-03-17T04:26:30.325Z,50.20
2019-03-17T04:29:01.324Z,49.80
2019-03-17T04:31:33.312Z,50.20
2019-03-17T04:34:08.767Z,50.40
2019-03-17T04:36:40.705Z,51.10
2019-03-17T04:39:11.324Z,50.90
2019-03-17T04:41:41.927Z,50.60
2019-03-17T04:44:20.794Z,49.80
2019-03-17T04:46:44.833Z,49.80
2019-03-17T04:49:15.711Z,50.50
2019-03-17T04:51:46.171Z,50.20
2019-03-17T04:54:16.754Z,50.20
2019-03-17T04:56:47.248Z,49.70
2019-03-17T04:59:19.650Z,51.10
2019-03-17T05:01:53.073Z,50.80
2019-03-17T05:04:23.747Z,50.70
2019-03-17T05:06:58.244Z,50.70
2019-03-17T05:09:29.725Z,50.60
2019-03-17T05:12:00.508Z,51.00
2019-03-17T05:14:31.074Z,51.00
2019-03-17T05:17:01.562Z,51.20
2019-03-17T05:19:33.976Z,50.40
2019-03-17T05:22:04.855Z,50.40
2019-03-17T05:24:36.367Z,50.40
2019-03-17T05:27:15.086Z,51.20
2019-03-17T05:29:48.425Z,50.20
2019-03-17T05:32:19.172Z,51.50
2019-03-17T05:34:50.356Z,50.40
2019-03-17T05:37:22.527Z,51.40
2019-03-17T05:39:52.923Z,50.30
2019-03-17T05:42:23.801Z,51.00
2019-03-17T05:44:55.103Z,49.80
2019-03-17T05:47:27.845Z,50.30
2019-03-17T05:49:58.306Z,50.70
2019-03-17T05:52:28.772Z,48.90
2019-03-17T05:55:03.449Z,49.80
2019-03-17T05:57:33.940Z,47.80
2019-03-17T06:00:05.444Z,49.10
2019-03-17T06:02:35.973Z,48.70
2019-03-17T06:05:08.140Z,48.30
2019-03-17T06:07:38.715Z,49.30
2019-03-17T06:10:09.512Z,48.20
2019-03-17T06:12:40.686Z,47.30
2019-03-17T06:15:11.504Z,47.80
2019-03-17T06:17:43.413Z,47.90
2019-03-17T06:20:14.320Z,46.10
2019-03-17T06:22:51.521Z,47.40
2019-03-17T06:25:21.532Z,46.00
2019-03-17T06:27:52.086Z,45.60
2019-03-17T06:30:39.888Z,46.00
2019-03-17T06:33:43.659Z,45.50
2019-03-17T06:37:16.885Z,44.30
2019-03-17T06:39:51.460Z,46.40
2019-03-17T06:45:57.765Z,46.50
2019-03-17T06:49:27.977Z,47.40
2019-03-17T06:51:47.058Z,47.30
2019-03-17T06:54:20.699Z,46.60
2019-03-17T06:56:51.603Z,46.00
2019-03-17T06:59:25.387Z,45.40
2019-03-17T07:01:56.340Z,45.80
2019-03-17T07:04:26.509Z,45.70
2019-03-17T07:06:59.489Z,46.60
2019-03-17T07:09:44.809Z,45.40
2019-03-17T12:49:23.850Z,27.40
2019-03-17T12:51:54.343Z,27.30
2019-03-17T12:54:25.042Z,27.50
2019-03-17T12:56:55.211Z,27.10
2019-03-17T12:59:26.344Z,27.30
2019-03-17T13:01:57.119Z,27.10
2019-03-17T13:04:27.432Z,27.50
2019-03-17T13:06:58.882Z,27.00
2019-03-17T13:13:02.383Z,27.00
2019-03-17T13:16:08.064Z,27.20
2019-03-17T13:18:38.743Z,27.50
2019-03-17T13:21:10.667Z,27.30
2019-03-17T13:23:58.632Z,27.20
2019-03-17T13:26:40.000Z,27.10
2019-03-17T13:29:26.140Z,27.90
2019-03-17T13:32:03.944Z,27.20
2019-03-17T13:34:42.393Z,27.30
2019-03-17T13:37:13.645Z,27.80
2019-03-17T13:40:01.171Z,27.90
2019-03-17T13:42:41.974Z,27.90
2019-03-17T13:45:25.513Z,28.10
2019-03-17T13:48:34.936Z,28.00
2019-03-17T13:51:17.047Z,28.00
2019-03-17T13:53:59.915Z,28.20
2019-03-17T13:56:36.063Z,28.20
2019-03-17T13:59:22.687Z,28.30
2019-03-17T14:02:02.765Z,28.30
2019-03-17T14:04:32.522Z,28.20
2019-03-17T14:07:13.000Z,28.20
2019-03-17T14:09:49.941Z,28.10
2019-03-17T14:12:30.038Z,28.10
2019-03-17T14:15:23.762Z,28.20
2019-03-17T14:18:00.021Z,28.00
2019-03-17T14:20:40.612Z,27.90
2019-03-17T14:23:32.158Z,28.00
2019-03-17T14:26:26.955Z,28.00
2019-03-17T14:29:01.639Z,28.20
2019-03-17T14:31:41.990Z,28.30
2019-03-17T14:34:23.222Z,28.40
2019-03-17T14:37:04.023Z,28.60
2019-03-17T14:39:47.544Z,28.60
2019-03-17T14:42:22.735Z,28.70
2019-03-17T14:45:02.750Z,29.00
2019-03-17T14:48:11.410Z,29.10
2019-03-17T14:50:38.056Z,29.10
2019-03-17T14:53:28.545Z,29.40
2019-03-17T14:56:16.673Z,29.60
2019-03-17T14:58:52.062Z,30.00
2019-03-17T15:01:41.162Z,30.10
2019-03-17T15:04:48.855Z,30.40
2019-03-17T15:07:27.097Z,30.50
2019-03-17T15:10:20.280Z,30.80
2019-03-17T15:12:54.975Z,30.90
2019-03-17T15:15:34.240Z,31.10
2019-03-17T15:18:05.836Z,31.30
2019-03-17T15:20:46.231Z,31.50
2019-03-17T15:23:21.879Z,31.70
2019-03-17T15:25:56.020Z,31.90
2019-03-17T15:28:34.308Z,32.20
2019-03-17T15:31:12.386Z,32.30
2019-03-17T15:33:46.099Z,32.60
2019-03-17T15:36:31.037Z,32.80
2019-03-17T15:39:02.252Z,33.10
2019-03-17T15:41:37.921Z,33.30
2019-03-17T15:44:22.276Z,33.60
2019-03-17T15:46:56.125Z,33.80
2019-03-17T15:49:27.279Z,33.90
2019-03-17T15:52:04.989Z,34.20
2019-03-17T15:54:48.154Z,34.10
2019-03-17T15:57:31.237Z,34.20
2019-03-17T16:00:24.904Z,34.30
2019-03-17T16:03:17.580Z,34.50
2019-03-17T16:05:52.306Z,34.70
2019-03-17T16:09:42.423Z,34.80
2019-03-17T16:12:26.001Z,35.10
2019-03-17T16:15:17.589Z,35.30
2019-03-17T16:17:58.399Z,35.40
2019-03-17T16:21:04.651Z,35.80
2019-03-17T16:23:38.146Z,35.90
2019-03-17T16:26:18.146Z,36.00
2019-03-17T16:28:49.650Z,36.20
2019-03-17T16:31:22.641Z,36.30
2019-03-17T16:34:04.482Z,36.40
2019-03-17T16:36:43.222Z,36.50
2019-03-17T16:39:27.053Z,36.70
2019-03-17T16:42:06.765Z,36.90
2019-03-17T16:44:56.433Z,37.10
2019-03-17T16:47:41.702Z,37.40
2019-03-17T16:50:30.646Z,37.50
2019-03-17T16:53:20.905Z,38.20
2019-03-17T16:56:01.123Z,39.60
2019-03-17T16:59:02.301Z,41.00
2019-03-17T17:02:24.315Z,42.10
2019-03-17T17:17:17.606Z,46.70
2019-03-17T17:19:53.692Z,46.70
2019-03-17T17:22:38.974Z,47.30
2019-03-17T17:25:20.770Z,48.10
2019-03-17T17:28:02.343Z,48.80
2019-03-17T17:35:16.106Z,50.30
2019-03-17T17:38:48.721Z,50.90
2019-03-17T17:43:07.211Z,51.40
2019-03-17T17:45:31.890Z,51.90
2019-03-17T17:48:59.084Z,52.10
2019-03-17T17:51:43.217Z,52.50
2019-03-17T17:54:36.008Z,53.30
2019-03-17T17:57:29.970Z,54.00
2019-03-17T18:00:29.470Z,54.30
2019-03-17T18:03:32.116Z,54.50
2019-03-17T18:06:23.540Z,55.00
2019-03-17T18:09:42.207Z,55.80
2019-03-17T18:12:32.623Z,56.40
2019-03-17T18:15:53.246Z,56.60
2019-03-17T18:18:44.754Z,56.60
2019-03-17T18:26:04.843Z,57.30
2019-03-17T18:29:22.676Z,57.60
2019-03-17T18:32:56.281Z,57.90
2019-03-17T18:35:58.337Z,58.30
2019-03-17T18:38:44.211Z,59.00
2019-03-17T18:41:46.503Z,59.70
2019-03-17T18:44:38.237Z,60.50
2019-03-17T18:47:53.760Z,61.00
2019-03-17T18:50:30.535Z,61.40
2019-03-17T18:54:09.264Z,62.40
2019-03-17T18:58:01.882Z,61.70
2019-03-17T19:07:28.299Z,62.40
2019-03-17T19:14:51.696Z,63.90
2019-03-17T19:17:28.385Z,63.00
2019-03-17T19:20:02.649Z,63.00
2019-03-17T19:22:47.220Z,63.10
2019-03-17T19:25:22.929Z,63.40
2019-03-17T19:28:23.241Z,63.50
2019-03-17T19:31:16.279Z,63.60
2019-03-17T19:33:50.597Z,63.60
2019-03-17T19:40:41.361Z,63.70
2019-03-17T19:44:14.489Z,63.60
2019-03-17T19:46:57.740Z,63.50
2019-03-17T19:49:51.422Z,63.70
2019-03-17T20:38:02.430Z,65.20
2019-03-17T20:40:33.676Z,65.10
2019-03-17T20:43:20.280Z,65.20
2019-03-17T20:45:39.445Z,65.50
2019-03-17T20:48:11.682Z,65.40
2019-03-17T20:50:42.427Z,64.90
2019-03-17T20:53:13.350Z,65.00
2019-03-17T20:59:06.637Z,64.80
2019-03-17T21:01:50.371Z,65.50
2019-03-17T21:04:26.370Z,65.50
2019-03-17T21:07:33.447Z,65.40
2019-03-17T21:10:22.254Z,65.70
2019-03-17T21:13:02.754Z,65.40
2019-03-17T21:15:35.102Z,65.30
2019-03-17T21:18:09.363Z,65.50
2019-03-17T21:20:55.731Z,66.00
2019-03-17T21:23:32.508Z,66.10
2019-03-17T21:26:15.075Z,66.70
2019-03-17T21:28:50.119Z,66.20
2019-03-17T21:31:24.161Z,66.50
2019-03-17T21:33:59.294Z,66.90
2019-03-17T21:36:42.930Z,66.70
2019-03-17T21:39:37.906Z,66.70
2019-03-17T21:42:11.202Z,66.40
2019-03-17T21:44:43.755Z,66.40
2019-03-17T21:47:14.641Z,66.20
2019-03-17T21:49:46.726Z,66.60
2019-03-17T21:52:31.021Z,66.50
2019-03-17T21:55:02.234Z,66.40
2019-03-17T21:57:34.717Z,66.00
2019-03-17T22:00:47.392Z,66.20
2019-03-17T22:03:21.845Z,65.90
2019-03-17T22:05:55.799Z,65.70
2019-03-17T22:08:30.064Z,65.80
2019-03-17T22:11:05.594Z,66.00
2019-03-17T22:13:37.952Z,66.70
2019-03-17T22:19:12.419Z,66.20
2019-03-17T22:21:48.122Z,66.30
2019-03-17T22:24:20.257Z,66.10
2019-03-17T22:27:11.747Z,66.30
2019-03-17T22:29:50.784Z,66.40
2019-03-17T22:32:21.471Z,66.20
2019-03-17T22:34:52.965Z,66.50
2019-03-17T22:37:27.342Z,67.00
2019-03-17T22:39:58.817Z,66.70
2019-03-17T22:42:29.363Z,66.70
2019-03-17T22:45:00.620Z,67.30
2019-03-17T22:47:35.392Z,67.10
2019-03-17T22:50:07.171Z,66.90
2019-03-17T22:52:41.935Z,66.90
2019-03-17T22:55:16.106Z,67.30
2019-03-17T22:57:48.745Z,67.80
2019-03-17T23:00:24.104Z,67.30
2019-03-17T23:02:57.680Z,67.60
2019-03-17T23:05:28.323Z,67.30
2019-03-17T23:07:59.545Z,67.50
2019-03-17T23:10:30.293Z,67.70
2019-03-17T23:13:00.775Z,67.20
2019-03-17T23:15:37.085Z,67.10
2019-03-17T23:18:07.670Z,66.70
2019-03-17T23:20:38.181Z,67.20
2019-03-17T23:23:08.775Z,66.70
2019-03-17T23:25:39.336Z,67.70
2019-03-17T23:28:09.865Z,67.60
2019-03-17T23:30:40.859Z,67.70
2019-03-17T23:33:11.915Z,67.40
2019-03-17T23:35:43.424Z,67.40
2019-03-17T23:38:13.978Z,66.50
2019-03-17T23:40:44.430Z,66.60
2019-03-17T23:43:14.989Z,67.50
2019-03-17T23:45:45.541Z,66.80
2019-03-17T23:48:16.145Z,66.60
2019-03-17T23:50:46.657Z,67.40
2019-03-17T23:53:18.168Z,66.80
2019-03-17T23:55:48.522Z,66.60
2019-03-17T23:58:19.427Z,66.60
